createdAt,value
2018-03-11T00:01:14.514Z,99.90
2018-03-11T00:03:42.778Z,99.90
2018-03-11T00:06:10.306Z,99.90
2018-03-11T00:08:37.809Z,99.90
2018-03-11T00:11:06.070Z,99.90
2018-03-11T00:13:33.591Z,99.90
2018-03-11T00:16:01.102Z,99.90
2018-03-11T00:18:29.385Z,99.90
2018-03-11T00:20:57.654Z,99.90
2018-03-11T00:23:25.918Z,99.90
2018-03-11T00:25:53.443Z,99.90
2018-03-11T00:28:20.946Z,99.90
2018-03-11T00:30:49.229Z,99.90
2018-03-11T00:33:17.498Z,99.90
2018-03-11T00:35:44.998Z,99.90
2018-03-11T00:38:12.524Z,99.90
2018-03-11T00:40:40.790Z,99.90
2018-03-11T00:43:09.089Z,99.90
2018-03-11T00:45:36.590Z,99.90
2018-03-11T00:48:04.091Z,99.90
2018-03-11T00:50:32.382Z,99.90
2018-03-11T00:52:59.882Z,99.90
2018-03-11T00:55:27.406Z,99.90
2018-03-11T00:57:54.906Z,99.90
2018-03-11T01:00:22.407Z,99.90
2018-03-11T01:02:50.690Z,99.90
2018-03-11T01:05:18.193Z,99.90
2018-03-11T01:07:45.709Z,99.90
2018-03-11T01:10:13.207Z,99.90
2018-03-11T01:12:40.701Z,99.90
2018-03-11T01:15:09.037Z,99.90
2018-03-11T01:17:36.498Z,99.90
2018-03-11T01:20:04.031Z,99.90
2018-03-11T01:22:31.530Z,99.90
2018-03-11T01:24:59.026Z,99.90
2018-03-11T01:27:27.314Z,99.90
2018-03-11T01:29:54.826Z,99.90
2018-03-11T01:32:22.345Z,99.90
2018-03-11T01:34:49.844Z,99.90
2018-03-11T01:37:17.342Z,99.90
2018-03-11T01:39:45.630Z,99.90
2018-03-11T01:42:13.126Z,99.90
2018-03-11T01:44:40.646Z,99.90
2018-03-11T01:47:08.142Z,99.90
2018-03-11T01:49:35.633Z,99.90
2018-03-11T01:52:03.914Z,99.90
2018-03-11T01:54:32.178Z,99.90
2018-03-11T01:56:59.698Z,99.90
2018-03-11T01:59:27.190Z,99.90
2018-03-11T02:01:54.686Z,99.90
2018-03-11T02:04:22.202Z,99.90
2018-03-11T02:06:49.704Z,99.90
2018-03-11T02:09:17.230Z,99.90
2018-03-11T02:11:44.722Z,99.90
2018-03-11T02:14:12.227Z,99.90
2018-03-11T02:16:39.746Z,99.90
2018-03-11T02:19:07.242Z,99.90
2018-03-11T02:21:34.763Z,99.90
2018-03-11T02:24:02.260Z,99.90
2018-03-11T02:26:29.755Z,99.90
2018-03-11T02:28:58.038Z,99.90
2018-03-11T02:31:26.298Z,99.90
2018-03-11T02:33:54.586Z,99.90
2018-03-11T02:36:22.847Z,99.90
2018-03-11T02:38:50.342Z,99.90
2018-03-11T02:41:17.871Z,99.90
2018-03-11T02:43:46.133Z,99.90
2018-03-11T02:46:13.655Z,99.90
2018-03-11T02:48:41.150Z,99.90
2018-03-11T02:51:08.646Z,99.90
2018-03-11T02:53:36.162Z,99.90
2018-03-11T02:56:04.438Z,99.90
2018-03-11T02:58:31.962Z,99.90
2018-03-11T03:00:59.457Z,99.90
2018-03-11T03:03:26.956Z,99.90
2018-03-11T03:05:54.479Z,99.90
2018-03-11T03:08:21.979Z,99.90
2018-03-11T03:10:49.494Z,99.90
2018-03-11T03:13:17.763Z,99.90
2018-03-11T03:15:45.258Z,99.90
2018-03-11T03:18:12.779Z,99.90
2018-03-11T03:20:40.283Z,99.90
2018-03-11T03:23:07.805Z,99.90
2018-03-11T03:25:36.801Z,99.90
2018-03-11T03:28:04.289Z,99.90
2018-03-11T03:30:31.802Z,99.90
2018-03-11T03:32:59.309Z,99.90
2018-03-11T03:35:27.167Z,99.90
2018-03-11T03:37:54.669Z,99.90
2018-03-11T03:40:22.161Z,99.90
2018-03-11T03:42:49.678Z,99.90
2018-03-11T03:45:17.170Z,99.90
2018-03-11T03:47:44.685Z,99.90
2018-03-11T03:50:12.174Z,99.90
2018-03-11T03:52:39.670Z,99.90
2018-03-11T03:55:07.950Z,99.90
2018-03-11T03:57:36.212Z,99.90
2018-03-11T04:00:04.494Z,99.90
2018-03-11T04:02:32.749Z,99.90
2018-03-11T04:05:00.238Z,99.90
2018-03-11T04:07:27.753Z,99.90
2018-03-11T04:09:55.241Z,99.90
2018-03-11T04:12:23.522Z,99.90
2018-03-11T04:14:51.786Z,99.90
2018-03-11T04:17:20.041Z,99.90
2018-03-11T04:19:47.557Z,99.90
2018-03-11T04:22:15.046Z,99.90
2018-03-11T04:24:42.561Z,99.90
2018-03-11T04:27:10.054Z,99.90
2018-03-11T04:29:37.546Z,99.90
2018-03-11T04:32:05.058Z,99.90
2018-03-11T04:34:32.551Z,99.90
2018-03-11T04:37:00.070Z,99.90
2018-03-11T04:39:27.566Z,99.90
2018-03-11T04:41:55.058Z,99.90
2018-03-11T04:44:23.342Z,99.90
2018-03-11T04:46:50.834Z,99.90
2018-03-11T04:49:18.352Z,99.90
2018-03-11T04:51:46.610Z,99.90
2018-03-11T04:54:14.866Z,99.90
2018-03-11T04:56:42.382Z,99.90
2018-03-11T04:59:09.882Z,99.90
2018-03-11T05:01:37.393Z,99.90
2018-03-11T05:04:04.885Z,99.90
2018-03-11T05:06:32.383Z,99.90
2018-03-11T05:09:00.660Z,99.90
2018-03-11T05:11:28.917Z,99.90
2018-03-11T05:13:56.437Z,99.90
2018-03-11T05:16:23.925Z,99.90
2018-03-11T05:18:51.421Z,99.90
2018-03-11T05:21:19.702Z,99.90
2018-03-11T05:23:47.962Z,99.90
2018-03-11T05:26:16.243Z,99.90
2018-03-11T05:28:44.502Z,99.90
2018-03-11T05:31:11.990Z,99.90
2018-03-11T05:33:39.502Z,99.90
2018-03-11T05:36:06.995Z,99.90
2018-03-11T05:38:35.281Z,99.90
2018-03-11T05:41:03.538Z,99.90
2018-03-11T05:43:31.031Z,99.90
2018-03-11T05:45:58.550Z,99.90
2018-03-11T05:48:26.042Z,99.90
2018-03-11T05:50:53.554Z,99.90
2018-03-11T05:53:21.111Z,99.90
2018-03-11T05:55:48.606Z,99.90
2018-03-11T05:58:16.889Z,99.90
2018-03-11T06:00:44.381Z,99.90
2018-03-11T06:03:11.890Z,99.90
2018-03-11T06:05:40.145Z,99.90
2018-03-11T06:08:07.654Z,99.90
2018-03-11T06:10:35.209Z,99.90
2018-03-11T06:13:03.444Z,99.90
2018-03-11T06:15:30.957Z,99.90
2018-03-11T06:17:58.445Z,99.90
2018-03-11T06:20:25.940Z,99.90
2018-03-11T06:22:54.221Z,99.90
2018-03-11T06:25:22.478Z,99.90
2018-03-11T06:27:49.993Z,99.90
2018-03-11T06:30:17.489Z,99.90
2018-03-11T06:32:44.976Z,99.90
2018-03-11T06:35:12.489Z,99.90
2018-03-11T06:37:39.978Z,99.90
2018-03-11T06:40:08.266Z,99.90
2018-03-11T06:42:35.762Z,99.90
2018-03-11T06:45:03.261Z,99.90
2018-03-11T06:47:30.781Z,99.90
2018-03-11T06:49:58.273Z,99.90
2018-03-11T06:52:25.785Z,99.90
2018-03-11T06:54:53.277Z,99.90
2018-03-11T06:57:20.766Z,99.90
2018-03-11T06:59:49.041Z,99.90
2018-03-11T07:02:17.298Z,99.90
2018-03-11T07:04:44.813Z,99.90
2018-03-11T07:07:12.306Z,99.90
2018-03-11T07:09:39.802Z,99.90
2018-03-11T07:12:07.317Z,99.90
2018-03-11T07:14:34.809Z,99.90
2018-03-11T07:17:03.089Z,99.90
2018-03-11T07:19:31.346Z,99.90
2018-03-11T07:21:58.833Z,99.90
2018-03-11T07:24:26.346Z,99.90
2018-03-11T07:26:53.838Z,99.90
2018-03-11T07:29:22.118Z,99.90
2018-03-11T07:31:50.385Z,99.90
2018-03-11T07:34:18.642Z,99.90
2018-03-11T07:36:46.157Z,99.90
2018-03-11T07:39:13.658Z,99.90
2018-03-11T07:41:41.174Z,99.90
2018-03-11T07:44:08.669Z,99.90
2018-03-11T07:46:36.191Z,99.90
2018-03-11T07:49:03.694Z,99.90
2018-03-11T07:51:31.187Z,99.90
2018-03-11T07:53:58.705Z,99.90
2018-03-11T07:56:26.198Z,99.90
2018-03-11T07:58:53.685Z,99.90
2018-03-11T08:01:21.201Z,99.90
2018-03-11T08:03:48.706Z,99.90
2018-03-11T08:06:16.217Z,99.90
2018-03-11T08:08:44.478Z,99.90
2018-03-11T08:11:12.886Z,99.90
2018-03-11T08:13:40.397Z,99.90
2018-03-11T08:16:07.889Z,99.90
2018-03-11T08:18:36.178Z,99.90
2018-03-11T08:21:03.673Z,99.90
2018-03-11T08:23:31.166Z,99.90
2018-03-11T08:25:58.686Z,99.90
2018-03-11T08:28:26.194Z,99.90
2018-03-11T08:30:54.473Z,99.90
2018-03-11T08:33:22.738Z,99.90
2018-03-11T08:35:50.236Z,99.90
2018-03-11T08:38:17.758Z,99.90
2018-03-11T08:40:46.017Z,99.40
2018-03-11T08:43:13.538Z,99.60
2018-03-11T08:45:41.034Z,99.00
2018-03-11T08:48:08.533Z,99.10
2018-03-11T08:50:36.054Z,99.00
2018-03-11T08:53:04.314Z,98.40
2018-03-11T08:55:31.833Z,98.40
2018-03-11T08:57:59.333Z,98.30
2018-03-11T09:00:26.825Z,98.70
2018-03-11T09:02:55.113Z,98.00
2018-03-11T09:05:23.377Z,97.60
2018-03-11T09:07:51.657Z,96.90
2018-03-11T09:10:19.913Z,97.00
2018-03-11T09:12:47.406Z,97.00
2018-03-11T09:15:14.929Z,95.60
2018-03-11T09:17:43.934Z,94.70
2018-03-11T09:20:11.454Z,94.60
2018-03-11T09:22:38.945Z,93.80
2018-03-11T09:25:06.437Z,91.20
2018-03-11T09:27:33.954Z,90.60
2018-03-11T09:30:02.213Z,85.10
2018-03-11T09:32:29.742Z,85.00
2018-03-11T09:34:57.245Z,81.70
2018-03-11T09:37:24.737Z,72.40
2018-03-11T09:39:53.019Z,65.10
2018-03-11T09:42:20.522Z,64.90
2018-03-11T09:44:48.821Z,56.70
2018-03-11T09:47:16.313Z,56.80
2018-03-11T09:49:43.810Z,55.50
2018-03-11T09:52:11.330Z,54.90
2018-03-11T09:54:38.833Z,55.20
2018-03-11T09:57:06.345Z,56.70
2018-03-11T09:59:34.601Z,58.10
2018-03-11T10:02:02.100Z,58.10
2018-03-11T10:04:29.622Z,60.10
2018-03-11T10:06:57.882Z,61.50
2018-03-11T10:09:25.401Z,61.40
2018-03-11T10:11:52.894Z,64.70
2018-03-11T10:14:20.390Z,67.90
2018-03-11T10:16:47.909Z,70.60
2018-03-11T10:19:15.406Z,70.50
2018-03-11T10:21:42.926Z,71.10
2018-03-11T10:24:10.418Z,70.80
2018-03-11T10:26:38.678Z,69.70
2018-03-11T10:29:06.199Z,69.70
2018-03-11T10:31:33.690Z,68.00
2018-03-11T10:34:01.212Z,66.80
2018-03-11T10:36:28.710Z,67.10
2018-03-11T10:38:56.215Z,65.40
2018-03-11T10:41:23.734Z,64.70
2018-03-11T10:43:51.998Z,60.90
2018-03-11T10:46:20.286Z,57.30
2018-03-11T10:48:48.546Z,52.40
2018-03-11T10:51:16.046Z,52.20
2018-03-11T10:53:43.565Z,47.20
2018-03-11T10:56:11.062Z,47.50
2018-03-11T10:58:38.585Z,46.00
2018-03-11T11:01:11.873Z,46.90
2018-03-11T11:03:45.139Z,47.20
2018-03-11T11:06:12.629Z,48.90
2018-03-11T11:08:40.125Z,49.50
2018-03-11T11:11:07.641Z,49.00
2018-03-11T11:13:35.144Z,49.20
2018-03-11T11:16:02.674Z,50.60
2018-03-11T11:18:30.938Z,53.80
2018-03-11T11:20:58.438Z,53.80
2018-03-11T11:23:25.977Z,53.80
2018-03-11T11:25:54.242Z,53.30
2018-03-11T11:28:22.525Z,55.30
2018-03-11T11:30:50.790Z,56.20
2018-03-11T11:33:19.058Z,55.70
2018-03-11T11:35:46.573Z,55.70
2018-03-11T11:38:14.075Z,57.60
2018-03-11T11:40:41.594Z,59.20
2018-03-11T11:43:09.121Z,60.40
2018-03-11T11:45:37.378Z,64.50
2018-03-11T11:48:05.662Z,67.40
2018-03-11T11:50:33.941Z,66.60
2018-03-11T11:53:02.226Z,67.00
2018-03-11T11:55:30.493Z,67.30
2018-03-11T11:57:58.762Z,67.10
2018-03-11T12:00:27.052Z,66.80
2018-03-11T12:02:55.317Z,64.10
2018-03-11T12:05:23.657Z,64.50
2018-03-11T12:07:51.126Z,64.50
2018-03-11T12:10:18.630Z,63.80
2018-03-11T12:12:46.147Z,61.80
2018-03-11T12:15:13.646Z,59.20
2018-03-11T12:17:41.157Z,58.30
2018-03-11T12:20:08.650Z,57.20
2018-03-11T12:22:36.961Z,57.00
2018-03-11T12:25:05.205Z,57.50
2018-03-11T12:27:33.465Z,57.30
2018-03-11T12:30:00.981Z,57.30
2018-03-11T12:32:28.509Z,55.90
2018-03-11T12:34:56.010Z,56.60
2018-03-11T12:37:23.529Z,56.70
2018-03-11T12:39:51.021Z,56.90
2018-03-11T12:42:18.562Z,56.80
2018-03-11T12:44:46.058Z,55.90
2018-03-11T12:47:13.556Z,55.90
2018-03-11T12:49:41.078Z,54.50
2018-03-11T12:52:08.573Z,53.80
2018-03-11T12:54:36.854Z,52.40
2018-03-11T12:57:04.353Z,52.40
2018-03-11T12:59:31.850Z,50.10
2018-03-11T13:02:00.137Z,42.80
2018-03-11T13:04:28.395Z,42.60
2018-03-11T13:06:55.913Z,42.60
2018-03-11T13:09:23.405Z,43.10
2018-03-11T13:11:52.406Z,40.40
2018-03-11T13:14:19.921Z,40.30
2018-03-11T13:16:47.413Z,39.10
2018-03-11T13:19:14.925Z,35.90
2018-03-11T13:21:42.424Z,35.90
2018-03-11T13:24:10.681Z,36.80
2018-03-11T13:26:38.196Z,36.80
2018-03-11T13:29:05.691Z,35.90
2018-03-11T13:31:33.205Z,36.50
2018-03-11T13:37:05.061Z,38.10
2018-03-11T13:39:44.578Z,39.80
2018-03-11T13:42:12.093Z,40.50
2018-03-11T13:44:40.345Z,41.80
2018-03-11T13:47:08.734Z,41.70
2018-03-11T13:49:36.990Z,43.70
2018-03-11T13:52:16.290Z,43.60
2018-03-11T13:54:43.785Z,43.80
2018-03-11T14:00:11.905Z,44.50
2018-03-11T14:02:40.181Z,44.50
2018-03-11T14:05:08.433Z,44.50
2018-03-11T14:07:35.921Z,44.50
2018-03-11T14:10:04.206Z,44.50
2018-03-11T14:12:31.694Z,44.40
2018-03-11T14:14:59.205Z,44.90
2018-03-11T14:17:27.474Z,46.80
2018-03-11T14:19:55.729Z,46.90
2018-03-11T14:22:23.247Z,46.90
2018-03-11T14:24:50.737Z,46.40
2018-03-11T14:27:18.255Z,46.40
2018-03-11T14:29:45.742Z,45.40
2018-03-11T14:32:13.230Z,46.80
2018-03-11T14:34:40.738Z,45.70
2018-03-11T14:37:08.226Z,46.00
2018-03-11T14:39:35.732Z,46.00
2018-03-11T14:42:03.981Z,46.20
2018-03-11T14:44:31.470Z,46.10
2018-03-11T14:46:58.981Z,46.80
2018-03-11T14:49:26.470Z,47.60
2018-03-11T14:51:54.750Z,46.60
2018-03-11T14:54:23.009Z,45.90
2018-03-11T14:56:50.494Z,45.90
2018-03-11T14:59:18.006Z,46.00
2018-03-11T15:01:45.498Z,46.80
2018-03-11T15:04:13.783Z,47.00
2018-03-11T15:06:42.042Z,46.50
2018-03-11T15:09:09.534Z,46.50
2018-03-11T15:11:37.103Z,46.80
2018-03-11T15:14:05.318Z,46.80
2018-03-11T15:16:32.877Z,46.80
2018-03-11T15:19:00.361Z,46.90
2018-03-11T15:21:28.619Z,48.30
2018-03-11T15:23:56.130Z,48.30
2018-03-11T15:26:23.617Z,48.80
2018-03-11T15:28:51.134Z,49.20
2018-03-11T15:31:18.621Z,50.20
2018-03-11T15:33:46.110Z,50.50
2018-03-11T15:36:13.626Z,50.60
2018-03-11T15:38:41.114Z,50.00
2018-03-11T15:41:08.633Z,50.60
2018-03-11T15:43:36.127Z,51.30
2018-03-11T15:46:03.617Z,52.10
2018-03-11T15:48:31.893Z,53.10
2018-03-11T15:51:00.145Z,52.50
2018-03-11T15:53:27.662Z,52.50
2018-03-11T15:55:55.149Z,53.10
2018-03-11T15:58:22.637Z,53.30
2018-03-11T16:00:50.151Z,54.70
2018-03-11T16:03:17.644Z,55.50
2018-03-11T16:05:45.160Z,56.10
2018-03-11T16:08:12.655Z,57.00
2018-03-11T16:10:40.146Z,57.70
2018-03-11T16:13:08.426Z,58.30
2018-03-11T16:15:35.918Z,58.30
2018-03-11T16:18:03.439Z,59.00
2018-03-11T16:20:31.699Z,60.50
2018-03-11T16:22:59.971Z,61.50
2018-03-11T16:25:27.534Z,61.50
2018-03-11T16:27:54.998Z,62.20
2018-03-11T16:30:23.276Z,64.00
2018-03-11T16:32:51.530Z,64.90
2018-03-11T16:35:19.030Z,64.90
2018-03-11T16:37:46.547Z,66.30
2018-03-11T16:40:14.809Z,68.10
2018-03-11T16:42:42.323Z,68.20
2018-03-11T16:45:09.814Z,68.70
2018-03-11T16:47:37.306Z,69.40
2018-03-11T16:50:04.844Z,71.20
2018-03-11T16:52:32.325Z,72.60
2018-03-11T16:54:59.842Z,72.40
2018-03-11T16:57:27.334Z,71.80
2018-03-11T16:59:54.826Z,71.90
2018-03-11T17:02:22.337Z,72.80
2018-03-11T17:04:49.830Z,74.60
2018-03-11T17:07:18.109Z,78.90
2018-03-11T17:09:46.366Z,80.50
2018-03-11T17:12:13.858Z,80.50
2018-03-11T17:14:41.378Z,82.20
2018-03-11T17:17:10.378Z,83.40
2018-03-11T17:19:37.893Z,83.40
2018-03-11T17:22:05.390Z,83.90
2018-03-11T17:24:32.890Z,84.30
2018-03-11T17:27:00.405Z,84.80
2018-03-11T17:29:29.401Z,85.50
2018-03-11T17:31:56.914Z,85.50
2018-03-11T17:34:24.406Z,85.80
2018-03-11T17:36:51.893Z,86.00
2018-03-11T17:39:20.173Z,86.50
2018-03-11T17:41:48.430Z,86.70
2018-03-11T17:44:15.941Z,86.70
2018-03-11T17:46:43.429Z,87.20
2018-03-11T17:49:10.921Z,87.50
2018-03-11T17:51:39.197Z,88.00
2018-03-11T17:54:07.450Z,88.20
2018-03-11T17:56:34.975Z,88.10
2018-03-11T17:59:02.482Z,88.20
2018-03-11T18:01:30.765Z,88.80
2018-03-11T18:03:59.053Z,88.80
2018-03-11T18:06:27.309Z,88.90
2018-03-11T18:08:54.826Z,88.90
2018-03-11T18:11:22.312Z,89.00
2018-03-11T18:13:49.809Z,89.00
2018-03-11T18:16:17.326Z,89.30
2018-03-11T18:18:45.582Z,89.50
2018-03-11T18:21:13.093Z,89.40
2018-03-11T18:23:41.349Z,89.80
2018-03-11T18:26:08.838Z,89.80
2018-03-11T18:28:36.354Z,90.30
2018-03-11T18:31:03.862Z,90.00
2018-03-11T18:33:31.381Z,90.10
2018-03-11T18:35:58.879Z,90.30
2018-03-11T18:38:26.373Z,90.40
2018-03-11T18:40:53.910Z,90.40
2018-03-11T18:43:21.401Z,90.50
2018-03-11T18:45:48.926Z,90.80
2018-03-11T18:48:16.417Z,90.90
2018-03-11T18:50:43.902Z,91.00
2018-03-11T18:53:12.183Z,91.40
2018-03-11T18:55:40.446Z,91.80
2018-03-11T18:58:07.981Z,91.80
2018-03-11T19:00:35.499Z,92.10
2018-03-11T19:03:02.993Z,92.30
2018-03-11T19:05:30.534Z,92.20
2018-03-11T19:07:58.022Z,91.90
2018-03-11T19:10:26.317Z,92.20
2018-03-11T19:12:54.577Z,92.00
2018-03-11T19:15:22.069Z,92.20
2018-03-11T19:17:50.350Z,92.40
2018-03-11T19:20:17.842Z,92.40
2018-03-11T19:22:45.366Z,92.70
2018-03-11T19:25:12.865Z,93.10
2018-03-11T19:27:40.349Z,92.90
2018-03-11T19:30:09.370Z,93.00
2018-03-11T19:32:37.629Z,93.40
2018-03-11T19:35:05.145Z,93.40
2018-03-11T19:37:32.637Z,93.40
2018-03-11T19:40:00.126Z,93.80
2018-03-11T19:42:27.643Z,93.90
2018-03-11T19:44:55.138Z,93.90
2018-03-11T19:47:23.417Z,94.20
2018-03-11T19:49:51.673Z,94.10
2018-03-11T19:52:19.165Z,94.10
2018-03-11T19:54:46.674Z,94.30
2018-03-11T19:57:14.930Z,95.00
2018-03-11T19:59:42.447Z,95.00
2018-03-11T20:02:10.162Z,95.30
2018-03-11T20:04:37.654Z,95.80
2018-03-11T20:07:05.964Z,96.40
2018-03-11T20:09:33.452Z,96.30
2018-03-11T20:12:00.964Z,96.70
2018-03-11T20:14:28.452Z,96.90
2018-03-11T20:16:55.938Z,96.90
2018-03-11T20:19:23.450Z,97.10
2018-03-11T20:21:50.939Z,97.20
2018-03-11T20:24:18.454Z,97.10
2018-03-11T20:26:45.946Z,97.30
2018-03-11T20:29:13.435Z,97.30
2018-03-11T20:31:40.946Z,97.20
2018-03-11T20:34:08.495Z,97.40
2018-03-11T20:36:35.997Z,97.40
2018-03-11T20:39:03.532Z,97.40
2018-03-11T20:41:31.022Z,97.40
2018-03-11T20:43:58.537Z,97.20
2018-03-11T20:46:26.026Z,97.30
2018-03-11T20:48:53.540Z,97.20
2018-03-11T20:51:21.045Z,97.30
2018-03-11T20:53:48.534Z,97.40
2018-03-11T20:56:16.813Z,97.40
2018-03-11T20:58:45.069Z,97.80
2018-03-11T21:01:12.585Z,97.80
2018-03-11T21:03:40.078Z,97.80
2018-03-11T21:06:07.570Z,98.00
2018-03-11T21:08:35.852Z,98.00
2018-03-11T21:11:04.118Z,98.00
2018-03-11T21:13:32.406Z,97.90
2018-03-11T21:16:00.665Z,98.00
2018-03-11T21:18:28.154Z,97.90
2018-03-11T21:20:55.670Z,97.90
2018-03-11T21:23:23.930Z,98.00
2018-03-11T21:25:51.445Z,97.90
2018-03-11T21:28:18.934Z,98.00
2018-03-11T21:30:46.432Z,98.10
2018-03-11T21:33:13.946Z,98.10
2018-03-11T21:35:41.434Z,98.30
2018-03-11T21:38:08.947Z,98.30
2018-03-11T21:40:36.447Z,98.50
2018-03-11T21:43:03.938Z,98.70
2018-03-11T21:45:31.453Z,98.60
2018-03-11T21:47:58.944Z,98.60
2018-03-11T21:50:27.222Z,98.80
2018-03-11T21:52:55.481Z,98.90
2018-03-11T21:55:22.973Z,98.90
2018-03-11T21:57:50.492Z,98.90
2018-03-11T22:00:17.987Z,98.80
2018-03-11T22:02:45.513Z,98.90
2018-03-11T22:05:13.945Z,99.10
2018-03-11T22:07:41.452Z,99.20
2018-03-11T22:10:08.974Z,99.40
2018-03-11T22:12:36.465Z,99.70
2018-03-11T22:15:03.981Z,99.90
2018-03-11T22:17:31.472Z,99.90
2018-03-11T22:19:58.970Z,99.90
2018-03-11T22:22:27.246Z,99.90
2018-03-11T22:24:55.505Z,99.90
2018-03-11T22:27:23.790Z,99.90
2018-03-11T22:29:52.050Z,99.90
2018-03-11T22:32:19.718Z,99.90
2018-03-11T22:34:48.209Z,99.90
2018-03-11T22:37:16.513Z,99.90
2018-03-11T22:39:44.042Z,99.90
2018-03-11T22:42:12.303Z,99.90
2018-03-11T22:44:40.565Z,99.90
2018-03-11T22:47:08.087Z,99.90
2018-03-11T22:49:35.593Z,99.90
2018-03-11T22:52:03.105Z,99.90
2018-03-11T22:54:30.601Z,99.90
2018-03-11T22:56:58.089Z,99.90
2018-03-11T22:59:26.373Z,99.90
2018-03-11T23:01:54.624Z,99.90
2018-03-11T23:04:22.141Z,99.90
2018-03-11T23:06:49.637Z,99.90
2018-03-11T23:09:17.129Z,99.90
2018-03-11T23:11:45.414Z,99.90
2018-03-11T23:14:12.902Z,99.90
2018-03-11T23:16:40.413Z,99.90
2018-03-11T23:19:20.401Z,99.90
2018-03-11T23:21:47.921Z,99.90
2018-03-11T23:24:16.178Z,99.90
2018-03-11T23:26:45.185Z,99.90
2018-03-11T23:29:13.465Z,99.90
2018-03-11T23:31:41.721Z,99.90
2018-03-11T23:34:09.233Z,99.90
2018-03-11T23:36:36.721Z,99.90
2018-03-11T23:39:04.217Z,99.90
2018-03-11T23:41:32.489Z,99.90
2018-03-11T23:44:00.742Z,99.90
2018-03-11T23:46:28.254Z,99.90
2018-03-11T23:48:55.740Z,99.90
2018-03-11T23:51:23.233Z,99.90
2018-03-11T23:53:51.522Z,99.90
2018-03-11T23:56:19.030Z,99.90
2018-03-11T23:58:46.550Z,99.90
